createdAt,value
2019-02-14T00:03:27.019Z,103022.97
2019-02-14T00:09:33.517Z,103024.91
2019-02-14T00:15:39.413Z,103037.09
2019-02-14T00:21:45.191Z,103037.77
2019-02-14T00:27:51.226Z,103044.13
2019-02-14T00:33:57.312Z,103040.95
2019-02-14T00:40:03.077Z,103029.38
2019-02-14T00:46:09.446Z,103027.59
2019-02-14T00:52:15.305Z,103027.54
2019-02-14T00:58:21.161Z,103031.48
2019-02-14T01:04:27.596Z,103043.97
2019-02-14T01:10:33.801Z,103034.80
2019-02-14T01:16:39.649Z,103039.47
2019-02-14T01:22:45.486Z,103032.56
2019-02-14T01:28:51.505Z,103029.55
2019-02-14T01:34:57.794Z,103029.03
2019-02-14T01:41:10.585Z,103028.28
2019-02-14T01:47:17.746Z,103029.48
2019-02-14T01:53:23.717Z,103021.48
2019-02-14T01:59:30.016Z,103020.70
2019-02-14T02:05:35.907Z,103015.22
2019-02-14T02:11:41.980Z,103019.58
2019-02-14T02:17:48.122Z,103014.60
2019-02-14T02:23:54.229Z,103005.03
2019-02-14T02:30:00.400Z,103006.67
2019-02-14T02:36:06.259Z,103008.69
2019-02-14T02:42:12.429Z,103008.20
2019-02-14T02:48:18.509Z,103013.85
2019-02-14T02:54:24.288Z,103011.16
2019-02-14T03:00:30.200Z,103015.70
2019-02-14T03:06:36.098Z,103015.89
2019-02-14T03:12:41.879Z,103026.94
2019-02-14T03:18:47.669Z,103021.45
2019-02-14T03:24:53.384Z,103028.78
2019-02-14T03:30:59.360Z,103017.73
2019-02-14T03:37:05.158Z,103028.69
2019-02-14T03:43:11.167Z,103032.50
2019-02-14T03:49:17.309Z,103028.61
2019-02-14T03:55:23.287Z,103032.73
2019-02-14T04:01:29.888Z,103022.62
2019-02-14T04:07:35.867Z,103030.61
2019-02-14T04:13:42.354Z,103028.91
2019-02-14T04:19:48.447Z,103031.03
2019-02-14T04:25:54.288Z,103043.45
2019-02-14T04:32:00.209Z,103048.03
2019-02-14T04:38:06.159Z,103050.96
2019-02-14T04:44:11.934Z,103048.14
2019-02-14T04:50:17.808Z,103044.94
2019-02-14T04:56:23.823Z,103039.84
2019-02-14T05:02:30.118Z,103039.84
2019-02-14T05:08:36.179Z,103049.33
2019-02-14T05:14:42.024Z,103045.53
2019-02-14T05:20:48.083Z,103045.12
2019-02-14T05:26:54.167Z,103047.95
2019-02-14T05:33:00.021Z,103050.25
2019-02-14T05:39:06.980Z,103053.05
2019-02-14T05:45:13.220Z,103061.74
2019-02-14T05:51:19.147Z,103065.86
2019-02-14T05:57:27.302Z,103056.34
2019-02-14T06:03:33.290Z,103062.83
2019-02-14T06:09:39.250Z,103064.02
2019-02-14T06:15:45.051Z,103074.05
2019-02-14T06:21:51.088Z,103083.02
2019-02-14T06:27:57.053Z,103084.06
2019-02-14T06:34:03.381Z,103093.97
2019-02-14T06:40:11.163Z,103101.77
2019-02-14T06:46:17.111Z,103109.14
2019-02-14T06:52:46.676Z,103112.63
2019-02-14T06:58:52.584Z,103106.14
2019-02-14T07:04:58.433Z,103106.77
2019-02-14T07:11:04.253Z,103115.47
2019-02-14T07:17:10.354Z,103118.96
2019-02-14T07:23:16.255Z,103118.27
2019-02-14T07:29:22.012Z,103120.60
2019-02-14T07:35:27.717Z,103134.83
2019-02-14T07:41:33.508Z,103137.09
2019-02-14T07:47:39.261Z,103139.62
2019-02-14T07:53:45.318Z,103140.42
2019-02-14T07:59:51.070Z,103134.05
2019-02-14T08:05:57.214Z,103119.55
2019-02-14T08:12:03.089Z,103121.73
2019-02-14T08:18:09.117Z,103115.70
2019-02-14T08:24:14.935Z,103111.59
2019-02-14T08:30:20.638Z,103109.78
2019-02-14T08:36:26.778Z,103104.62
2019-02-14T08:42:32.694Z,103102.88
2019-02-14T08:48:38.777Z,103111.79
2019-02-14T08:54:44.790Z,103102.42
2019-02-14T09:00:50.530Z,103090.38
2019-02-14T09:06:56.571Z,103113.11
2019-02-14T09:13:02.593Z,103111.05
2019-02-14T09:19:08.294Z,103098.33
2019-02-14T09:25:14.321Z,103104.16
2019-02-14T09:31:20.353Z,103112.13
2019-02-14T09:37:26.368Z,103106.77
2019-02-14T09:43:32.182Z,103100.75
2019-02-14T09:49:37.907Z,103105.30
2019-02-14T09:55:43.763Z,103095.28
2019-02-14T10:01:49.668Z,103095.86
2019-02-14T10:07:55.542Z,103094.30
2019-02-14T10:14:01.388Z,103098.22
2019-02-14T10:20:09.576Z,103095.23
2019-02-14T10:26:15.574Z,103090.92
2019-02-14T10:32:21.472Z,103077.80
2019-02-14T10:38:27.198Z,103087.39
2019-02-14T10:44:33.143Z,103089.77
2019-02-14T10:50:39.023Z,103094.68
2019-02-14T10:56:44.767Z,103101.63
2019-02-14T11:02:52.282Z,103092.83
2019-02-14T11:08:58.327Z,103093.09
2019-02-14T11:15:04.197Z,103097.66
2019-02-14T11:21:10.443Z,103091.19
2019-02-14T11:27:16.615Z,103076.52
2019-02-14T11:33:22.519Z,103077.27
2019-02-14T11:39:28.290Z,103069.67
2019-02-14T11:45:34.387Z,103059.68
2019-02-14T11:51:40.323Z,103060.38
2019-02-14T11:57:46.081Z,103047.76
2019-02-14T12:03:51.888Z,103052.75
2019-02-14T12:09:57.811Z,103038.46
2019-02-14T12:16:03.946Z,103020.08
2019-02-14T12:22:10.133Z,103016.66
2019-02-14T12:28:16.039Z,103011.88
2019-02-14T12:34:21.750Z,102996.45
2019-02-14T12:40:27.887Z,102989.48
2019-02-14T12:46:33.681Z,102972.08
2019-02-14T12:52:39.524Z,102972.02
2019-02-14T12:58:45.824Z,102969.63
2019-02-14T13:04:51.877Z,102969.55
2019-02-14T13:10:58.535Z,102975.63
2019-02-14T13:17:04.339Z,102968.81
2019-02-14T13:23:10.400Z,102968.28
2019-02-14T13:29:16.343Z,102970.55
2019-02-14T13:35:22.046Z,102977.47
2019-02-14T13:41:31.084Z,102976.44
2019-02-14T13:47:35.948Z,102971.34
2019-02-14T13:53:41.710Z,102967.65
2019-02-14T13:59:47.756Z,102949.97
2019-02-14T14:05:56.974Z,102944.20
2019-02-14T14:12:02.825Z,102935.36
2019-02-14T14:18:08.610Z,102935.25
2019-02-14T14:24:14.471Z,102921.81
2019-02-14T14:30:20.462Z,102920.20
2019-02-14T14:36:26.406Z,102911.14
2019-02-14T14:43:00.227Z,102898.05
2019-02-14T14:49:06.052Z,102893.89
2019-02-14T14:55:11.955Z,102897.59
2019-02-14T15:01:17.817Z,102901.17
2019-02-14T15:07:23.913Z,102891.82
2019-02-14T15:13:29.755Z,102889.61
2019-02-14T15:19:35.750Z,102881.63
2019-02-14T15:25:41.521Z,102873.42
2019-02-14T15:31:47.221Z,102876.88
2019-02-14T15:37:53.170Z,102872.50
2019-02-14T15:43:59.013Z,102872.14
2019-02-14T15:50:06.873Z,102869.99
2019-02-14T15:56:13.230Z,102862.62
2019-02-14T16:02:19.237Z,102859.52
2019-02-14T16:08:25.680Z,102856.84
2019-02-14T16:14:31.582Z,102856.84
2019-02-14T16:20:39.792Z,102858.67
2019-02-14T16:26:45.396Z,102862.16
2019-02-14T16:32:51.890Z,102861.66
2019-02-14T16:38:58.730Z,102863.01
2019-02-14T16:45:05.911Z,102853.47
2019-02-14T16:51:11.855Z,102855.58
2019-02-14T16:57:18.130Z,102866.34
2019-02-14T17:03:24.106Z,102860.17
2019-02-14T17:09:30.264Z,102867.35
2019-02-14T17:15:36.421Z,102874.13
2019-02-14T17:21:43.449Z,102880.34
2019-02-14T17:27:51.079Z,102882.30
2019-02-14T17:33:57.128Z,102878.92
2019-02-14T17:40:03.137Z,102887.86
2019-02-14T17:46:09.219Z,102888.73
2019-02-14T17:52:15.614Z,102885.59
2019-02-14T17:58:21.640Z,102888.78
2019-02-14T18:04:27.438Z,102892.73
2019-02-14T18:10:33.587Z,102890.95
2019-02-14T18:16:39.433Z,102896.95
2019-02-14T18:22:45.128Z,102895.44
2019-02-14T18:28:50.914Z,102897.53
2019-02-14T18:34:58.738Z,102902.04
2019-02-14T18:41:07.007Z,102899.78
2019-02-14T18:47:15.989Z,102899.74
2019-02-14T18:53:21.982Z,102894.77
2019-02-14T18:59:27.975Z,102895.24
2019-02-14T19:05:33.815Z,102889.51
2019-02-14T19:11:39.779Z,102884.87
2019-02-14T19:17:45.874Z,102889.00
2019-02-14T19:23:51.777Z,102883.72
2019-02-14T19:29:57.816Z,102888.23
2019-02-14T19:36:03.904Z,102894.89
2019-02-14T19:42:13.273Z,102881.58
2019-02-14T19:48:19.072Z,102880.67
2019-02-14T19:54:24.879Z,102885.84
2019-02-14T20:00:30.823Z,102892.45
2019-02-14T20:06:36.592Z,102883.22
2019-02-14T20:12:42.856Z,102878.89
2019-02-14T20:18:48.904Z,102885.32
2019-02-14T20:24:54.836Z,102872.62
2019-02-14T20:31:01.397Z,102871.91
2019-02-14T20:37:07.277Z,102872.48
2019-02-14T20:43:13.198Z,102872.66
2019-02-14T20:49:19.072Z,102876.56
2019-02-14T20:55:24.913Z,102871.75
2019-02-14T21:01:31.001Z,102871.15
2019-02-14T21:07:37.361Z,102863.15
2019-02-14T21:13:43.583Z,102868.69
2019-02-14T21:19:49.306Z,102858.19
2019-02-14T21:25:55.537Z,102862.33
2019-02-14T21:32:01.448Z,102857.36
2019-02-14T21:38:07.825Z,102855.80
2019-02-14T21:44:13.847Z,102855.01
2019-02-14T21:50:19.841Z,102854.08
2019-02-14T21:56:25.703Z,102851.16
2019-02-14T22:02:31.520Z,102854.16
2019-02-14T22:08:37.261Z,102846.40
2019-02-14T22:14:43.697Z,102850.82
2019-02-14T22:20:49.494Z,102850.57
2019-02-14T22:26:55.261Z,102851.94
2019-02-14T22:33:01.035Z,102847.96
2019-02-14T22:39:07.822Z,102848.44
2019-02-14T22:45:14.139Z,102858.53
2019-02-14T22:51:20.828Z,102852.10
2019-02-14T22:57:26.781Z,102855.28
2019-02-14T23:03:32.803Z,102855.70
2019-02-14T23:09:39.465Z,102853.91
2019-02-14T23:15:46.551Z,102855.30
2019-02-14T23:21:53.262Z,102848.05
2019-02-14T23:27:59.658Z,102840.53
2019-02-14T23:34:05.562Z,102854.48
2019-02-14T23:40:11.475Z,102854.48
2019-02-14T23:46:17.436Z,102850.11
2019-02-14T23:52:23.398Z,102854.98
2019-02-14T23:58:29.108Z,102850.31
